C6006 KLAL-KPIE
Flight info
| Callsign | C6006 |
|---|---|
| Flight time | 0h 10m |
| Altitude | VFR |
| Route | WEST |
| Aircraft | H60/M-DOV/C |
Departure
| Time | 2026-04-26 23:19 |
|---|---|
| Airport | Lakeland Linder International Airport (KLAL) |
Arrival
| Time | 2026-04-26 23:29 |
|---|---|
| Airport | St. Petersburg Clearwater International Airport (KPIE) |
| Time | Latitude | Longitude | Altitude | Speed | Heading |
|---|---|---|---|---|---|
| 2026-04-26 23:07 | 27.98711 | -82.01608 | 146 ft | 0 kts | 315° |
| 2026-04-26 23:09 | 27.98715 | -82.01613 | 159 ft | 6 kts | 315° |
| 2026-04-26 23:09 | 27.98739 | -82.01813 | 215 ft | 48 kts | 273° |
| 2026-04-26 23:09 | 27.98731 | -82.02396 | 393 ft | 87 kts | 278° |
| 2026-04-26 23:09 | 27.98706 | -82.03070 | 353 ft | 85 kts | 278° |
| 2026-04-26 23:10 | 27.98719 | -82.03740 | 353 ft | 84 kts | 278° |
| 2026-04-26 23:10 | 27.98731 | -82.04391 | 351 ft | 83 kts | 278° |
| 2026-04-26 23:10 | 27.98724 | -82.05034 | 348 ft | 82 kts | 278° |
| 2026-04-26 23:10 | 27.98689 | -82.05691 | 348 ft | 83 kts | 278° |
| 2026-04-26 23:11 | 27.98672 | -82.06417 | 683 ft | 110 kts | 270° |
| 2026-04-26 23:11 | 27.98658 | -82.07434 | 506 ft | 143 kts | 256° |
| 2026-04-26 23:11 | 27.98530 | -82.08560 | 683 ft | 151 kts | 269° |
| 2026-04-26 23:11 | 27.98439 | -82.09688 | 700 ft | 141 kts | 269° |
| 2026-04-26 23:12 | 27.98370 | -82.10815 | 722 ft | 142 kts | 269° |
| 2026-04-26 23:12 | 27.98320 | -82.11896 | 721 ft | 139 kts | 269° |
| 2026-04-26 23:12 | 27.98237 | -82.12976 | 736 ft | 140 kts | 269° |
| 2026-04-26 23:12 | 27.98130 | -82.14072 | 731 ft | 138 kts | 269° |
| 2026-04-26 23:13 | 27.98062 | -82.15132 | 725 ft | 139 kts | 269° |
| 2026-04-26 23:13 | 27.97999 | -82.16245 | 740 ft | 143 kts | 269° |
| 2026-04-26 23:13 | 27.97901 | -82.17327 | 714 ft | 128 kts | 268° |
| 2026-04-26 23:13 | 27.97829 | -82.18333 | 682 ft | 136 kts | 269° |
| 2026-04-26 23:14 | 27.97739 | -82.19403 | 668 ft | 140 kts | 269° |
| 2026-04-26 23:14 | 27.97637 | -82.20585 | 669 ft | 146 kts | 269° |
| 2026-04-26 23:14 | 27.97541 | -82.21682 | 679 ft | 151 kts | 269° |
| 2026-04-26 23:14 | 27.97450 | -82.22835 | 654 ft | 145 kts | 269° |
| 2026-04-26 23:15 | 27.97344 | -82.23988 | 663 ft | 136 kts | 269° |
| 2026-04-26 23:15 | 27.97242 | -82.25059 | 663 ft | 141 kts | 269° |
| 2026-04-26 23:15 | 27.97138 | -82.26127 | 671 ft | 138 kts | 269° |
| 2026-04-26 23:15 | 27.97035 | -82.27219 | 641 ft | 148 kts | 269° |
| 2026-04-26 23:16 | 27.96741 | -82.28450 | 324 ft | 162 kts | 246° |
| 2026-04-26 23:16 | 27.96044 | -82.29337 | 305 ft | 143 kts | 223° |
| 2026-04-26 23:16 | 27.95171 | -82.29810 | 274 ft | 136 kts | 204° |
| 2026-04-26 23:16 | 27.94228 | -82.29905 | 296 ft | 143 kts | 186° |
| 2026-04-26 23:17 | 27.93133 | -82.29956 | 298 ft | 154 kts | 187° |
| 2026-04-26 23:17 | 27.92049 | -82.30018 | 278 ft | 154 kts | 187° |
| 2026-04-26 23:17 | 27.90967 | -82.30088 | 262 ft | 156 kts | 187° |
| 2026-04-26 23:17 | 27.89890 | -82.30131 | 266 ft | 156 kts | 187° |
| 2026-04-26 23:18 | 27.88799 | -82.30179 | 253 ft | 152 kts | 187° |
| 2026-04-26 23:18 | 27.88021 | -82.30684 | 312 ft | 123 kts | 257° |
| 2026-04-26 23:18 | 27.88484 | -82.31096 | 224 ft | 123 kts | 34° |
| 2026-04-26 23:18 | 27.88328 | -82.30302 | 257 ft | 109 kts | 161° |
| 2026-04-26 23:19 | 27.87836 | -82.30641 | 272 ft | 111 kts | 265° |
| 2026-04-26 23:19 | 27.87750 | -82.31728 | 306 ft | 142 kts | 267° |
| 2026-04-26 23:19 | 27.87634 | -82.32891 | 810 ft | 152 kts | 266° |
| 2026-04-26 23:19 | 27.87436 | -82.34151 | 606 ft | 164 kts | 257° |
| 2026-04-26 23:20 | 27.87830 | -82.34988 | 322 ft | 93 kts | 350° |
| 2026-04-26 23:20 | 27.88228 | -82.35110 | 148 ft | 45 kts | 339° |
| 2026-04-26 23:20 | 27.88386 | -82.35145 | 85 ft | 12 kts | 313° |
| 2026-04-26 23:20 | 27.88409 | -82.35159 | 29 ft | 0 kts | 310° |
| 2026-04-26 23:21 | 27.88446 | -82.35196 | 93 ft | 38 kts | 313° |
| 2026-04-26 23:21 | 27.89003 | -82.35747 | 296 ft | 139 kts | 317° |
| 2026-04-26 23:21 | 27.89184 | -82.36731 | 433 ft | 139 kts | 252° |
| 2026-04-26 23:21 | 27.88756 | -82.37800 | 681 ft | 152 kts | 247° |
| 2026-04-26 23:22 | 27.88268 | -82.38868 | 588 ft | 153 kts | 247° |
| 2026-04-26 23:22 | 27.87822 | -82.39961 | 611 ft | 158 kts | 247° |
| 2026-04-26 23:22 | 27.87361 | -82.41074 | 610 ft | 157 kts | 247° |
| 2026-04-26 23:22 | 27.86877 | -82.42160 | 621 ft | 153 kts | 247° |
| 2026-04-26 23:23 | 27.86398 | -82.43248 | 618 ft | 154 kts | 247° |
| 2026-04-26 23:23 | 27.85920 | -82.44346 | 626 ft | 158 kts | 247° |
| 2026-04-26 23:23 | 27.85446 | -82.45398 | 624 ft | 151 kts | 247° |
| 2026-04-26 23:23 | 27.85141 | -82.46572 | 538 ft | 172 kts | 270° |
| 2026-04-26 23:24 | 27.85148 | -82.47895 | 258 ft | 152 kts | 272° |
| 2026-04-26 23:24 | 27.85120 | -82.49046 | 277 ft | 151 kts | 272° |
| 2026-04-26 23:24 | 27.85106 | -82.50187 | 275 ft | 147 kts | 272° |
| 2026-04-26 23:24 | 27.85075 | -82.51355 | 277 ft | 149 kts | 272° |
| 2026-04-26 23:25 | 27.85066 | -82.52542 | 276 ft | 150 kts | 272° |
| 2026-04-26 23:25 | 27.85025 | -82.53737 | 274 ft | 152 kts | 272° |
| 2026-04-26 23:25 | 27.84994 | -82.54946 | 275 ft | 148 kts | 272° |
| 2026-04-26 23:25 | 27.84974 | -82.56102 | 280 ft | 148 kts | 272° |
| 2026-04-26 23:26 | 27.84964 | -82.57269 | 273 ft | 150 kts | 272° |
| 2026-04-26 23:26 | 27.84933 | -82.58427 | 271 ft | 149 kts | 272° |
| 2026-04-26 23:26 | 27.84944 | -82.59578 | 276 ft | 145 kts | 272° |
| 2026-04-26 23:26 | 27.84903 | -82.60758 | 868 ft | 156 kts | 272° |
| 2026-04-26 23:27 | 27.84870 | -82.62083 | 840 ft | 186 kts | 265° |
| 2026-04-26 23:27 | 27.84757 | -82.63600 | 608 ft | 195 kts | 272° |
| 2026-04-26 23:27 | 27.84947 | -82.65070 | 644 ft | 187 kts | 291° |
| 2026-04-26 23:27 | 27.85486 | -82.65859 | 471 ft | 193 kts | 320° |
| 2026-04-26 23:28 | 27.86634 | -82.66896 | 1478 ft | 133 kts | 320° |
| 2026-04-26 23:28 | 27.87376 | -82.67555 | 1973 ft | 141 kts | 320° |
| 2026-04-26 23:28 | 27.88166 | -82.68274 | 2148 ft | 151 kts | 320° |
| 2026-04-26 23:28 | 27.88996 | -82.69037 | 1997 ft | 156 kts | 317° |
| 2026-04-26 23:29 | 27.89619 | -82.69971 | 1090 ft | 146 kts | 301° |
| 2026-04-26 23:29 | 27.90355 | -82.70558 | 425 ft | 116 kts | 354° |
| 2026-04-26 23:29 | 27.90731 | -82.70093 | 267 ft | 63 kts | 87° |
| 2026-04-26 23:29 | 27.90789 | -82.69828 | 192 ft | 22 kts | 76° |
| 2026-04-26 23:30 | 27.90952 | -82.69599 | 60 ft | 50 kts | 43° |
| 2026-04-26 23:30 | 27.91070 | -82.69480 | 27 ft | 10 kts | 43° |
| 2026-04-26 23:30 | 27.91129 | -82.69425 | 17 ft | 7 kts | 43° |
| 2026-04-26 23:30 | 27.91147 | -82.69406 | 17 ft | 0 kts | 42° |
| 2026-04-26 23:31 | 27.91149 | -82.69402 | 21 ft | 7 kts | 41° |
| 2026-04-26 23:31 | 27.91200 | -82.69354 | 17 ft | 1 kts | 32° |
| 2026-04-26 23:31 | 27.91242 | -82.69387 | 17 ft | 11 kts | 306° |
| 2026-04-26 23:31 | 27.91272 | -82.69434 | 17 ft | 4 kts | 304° |
| 2026-04-26 23:32 | 27.91277 | -82.69443 | 17 ft | 0 kts | 304° |
| 2026-04-26 23:32 | 27.91296 | -82.69472 | 18 ft | 1 kts | 308° |
| 2026-04-26 23:33 | 27.91304 | -82.69483 | 18 ft | 0 kts | 306° |
| 2026-04-26 23:33 | 27.91298 | -82.69474 | 18 ft | 0 kts | 305° |